Time;durP1;ratioP1;P1;durP2;ratioP2;P2;SDS_P1;SDS_P2;PMS_P1;PMS_P2;Temp;Humidity;BMP_temperature;BMP_pressure;BME280_temperature;BME280_humidity;BME280_pressure;Samples;Min_cycle;Max_cycle;Signal;HPM_P1;HPM_P2
2022/06/09 00:00:41;;;;;;;22.60;16.38;;;12.60;99.90;;;;;;4973668;28;20730;-71
2022/06/09 00:03:15;;;;;;;17.27;15.55;;;12.60;99.90;;;;;;4973244;28;20065;-71
2022/06/09 00:05:43;;;;;;;19.05;14.88;;;12.50;99.90;;;;;;4972943;28;20145;-72
2022/06/09 00:08:11;;;;;;;18.27;14.45;;;12.50;99.90;;;;;;4974402;28;20078;-71
2022/06/09 00:10:44;;;;;;;17.67;15.88;;;12.50;99.90;;;;;;4974001;28;20095;-73
2022/06/09 00:13:11;;;;;;;18.35;16.20;;;12.50;99.90;;;;;;4967509;28;20124;-72
2022/06/09 00:15:38;;;;;;;21.10;16.85;;;12.50;99.90;;;;;;4975036;28;20524;-68
2022/06/09 00:18:06;;;;;;;19.52;14.40;;;12.50;99.90;;;;;;4952610;28;20221;-71
2022/06/09 00:20:33;;;;;;;19.90;13.95;;;12.50;99.90;;;;;;4966261;28;20401;-71
2022/06/09 00:23:00;;;;;;;16.83;15.05;;;12.50;99.90;;;;;;4978167;28;20050;-71
2022/06/09 00:25:28;;;;;;;17.23;15.32;;;12.50;99.90;;;;;;4979066;28;20096;-77
2022/06/09 00:27:54;;;;;;;16.52;12.75;;;12.50;99.90;;;;;;4983574;28;20127;-72
2022/06/09 00:30:22;;;;;;;20.75;15.85;;;12.40;99.90;;;;;;4971837;28;20122;-71
2022/06/09 00:32:48;;;;;;;23.05;14.68;;;12.40;99.90;;;;;;4991080;28;20112;-71
2022/06/09 00:35:15;;;;;;;16.27;14.23;;;12.30;99.90;;;;;;4987867;28;20054;-70
2022/06/09 00:37:42;;;;;;;19.75;15.18;;;12.30;99.90;;;;;;4991907;28;20078;-71
2022/06/09 00:40:12;;;;;;;14.85;12.65;;;12.30;99.90;;;;;;4990584;28;20503;-72
2022/06/09 00:42:39;;;;;;;16.90;14.10;;;12.20;99.90;;;;;;4985675;28;20050;-71
2022/06/09 00:45:35;;;;;;;18.98;15.45;;;12.20;99.90;;;;;;4985926;28;20303;-68
2022/06/09 00:48:14;;;;;;;30.73;15.50;;;12.20;99.90;;;;;;4990522;28;20054;-70
2022/06/09 00:50:42;;;;;;;17.30;14.18;;;12.10;99.90;;;;;;4985630;28;20104;-73
2022/06/09 00:53:18;;;;;;;20.98;15.70;;;12.10;99.90;;;;;;4986314;28;20119;-68
2022/06/09 00:55:46;;;;;;;18.52;16.58;;;12.10;99.90;;;;;;4991049;28;20046;-74
2022/06/09 00:58:17;;;;;;;18.92;14.82;;;12.10;99.90;;;;;;4988312;28;20077;-69
2022/06/09 01:00:51;;;;;;;17.88;13.38;;;12.00;99.90;;;;;;4983747;28;20536;-72
2022/06/09 01:03:22;;;;;;;20.60;17.00;;;12.00;99.90;;;;;;4996617;28;20141;-77
2022/06/09 01:05:53;;;;;;;16.48;14.88;;;12.00;99.90;;;;;;4994460;28;20103;-67
2022/06/09 01:08:28;;;;;;;17.98;16.20;;;12.00;99.90;;;;;;4990849;28;20050;-71
2022/06/09 01:10:55;;;;;;;24.38;16.50;;;11.90;99.90;;;;;;4974187;28;20709;-71
2022/06/09 01:13:22;;;;;;;17.92;14.02;;;11.90;99.90;;;;;;4987645;28;20053;-67
2022/06/09 01:16:07;;;;;;;14.38;12.88;;;11.90;99.90;;;;;;4992570;28;20153;-71
2022/06/09 01:19:10;;;;;;;17.92;14.57;;;11.90;99.90;;;;;;4970525;28;20394;-70
2022/06/09 01:22:04;;;;;;;16.75;14.45;;;11.80;99.90;;;;;;4991252;28;20058;-68
2022/06/09 01:24:40;;;;;;;13.43;12.00;;;11.80;99.90;;;;;;4990903;28;20152;-71
2022/06/09 01:27:16;;;;;;;15.77;13.13;;;11.70;99.90;;;;;;4992795;28;20054;-73
2022/06/09 01:30:07;;;;;;;15.35;13.70;;;11.70;99.90;;;;;;4992986;28;20050;-71
2022/06/09 01:32:44;;;;;;;17.17;13.00;;;11.70;99.90;;;;;;4988200;28;20493;-72
2022/06/09 01:35:19;;;;;;;17.40;14.70;;;11.60;99.90;;;;;;4992753;28;20078;-73
2022/06/09 01:37:51;;;;;;;18.92;14.63;;;11.60;99.90;;;;;;4990072;28;20558;-74
2022/06/09 01:40:19;;;;;;;20.00;13.80;;;11.50;99.90;;;;;;4988009;28;20092;-70
2022/06/09 01:42:54;;;;;;;22.77;15.85;;;11.60;99.90;;;;;;4993205;28;20157;-69
2022/06/09 01:45:24;;;;;;;15.05;12.98;;;11.60;99.90;;;;;;4978751;28;20050;-72
2022/06/09 01:48:18;;;;;;;20.33;14.85;;;11.60;99.90;;;;;;4994270;28;20113;-67
2022/06/09 01:50:51;;;;;;;18.98;12.98;;;11.50;99.90;;;;;;4990775;28;20050;-73
2022/06/09 01:53:37;;;;;;;15.02;12.23;;;11.50;99.90;;;;;;4992342;28;20057;-74
2022/06/09 01:56:07;;;;;;;16.90;14.80;;;11.50;99.90;;;;;;4994176;28;20062;-67
2022/06/09 01:58:39;;;;;;;15.57;13.55;;;11.50;99.90;;;;;;4993050;28;20691;-72
2022/06/09 02:01:07;;;;;;;16.95;14.32;;;11.40;99.90;;;;;;4993124;28;20061;-72
2022/06/09 02:03:40;;;;;;;18.80;15.20;;;11.40;99.90;;;;;;4975502;28;21183;-74
2022/06/09 02:06:10;;;;;;;17.23;13.23;;;11.40;99.90;;;;;;4987029;28;20655;-69
2022/06/09 02:08:38;;;;;;;15.75;12.48;;;11.40;99.90;;;;;;4989319;28;20511;-73
2022/06/09 02:11:08;;;;;;;15.07;13.48;;;11.40;99.90;;;;;;4993354;28;20537;-73
2022/06/09 02:13:42;;;;;;;16.00;12.48;;;11.40;99.90;;;;;;4996823;28;20081;-73
2022/06/09 02:16:14;;;;;;;13.88;11.95;;;11.40;99.90;;;;;;4993546;28;20395;-69
2022/06/09 02:18:45;;;;;;;14.85;12.52;;;11.50;99.90;;;;;;4995373;28;20100;-72
2022/06/09 02:21:17;;;;;;;;;;;11.50;99.90;;;;;;4992615;28;20050;-75
2022/06/09 02:23:51;;;;;;;11.77;10.55;;;11.50;99.90;;;;;;4996140;28;19983;-72
2022/06/09 02:26:18;;;;;;;12.68;10.48;;;11.50;99.90;;;;;;4993165;28;20420;-70
2022/06/09 02:28:47;;;;;;;11.80;10.73;;;11.50;99.90;;;;;;4998860;28;20069;-70
2022/06/09 02:31:15;;;;;;;14.48;12.10;;;11.50;99.90;;;;;;4996573;28;20484;-70
2022/06/09 02:33:42;;;;;;;11.77;10.40;;;11.50;99.90;;;;;;4996782;28;20500;-74
2022/06/09 02:36:09;;;;;;;11.18;9.93;;;11.50;99.90;;;;;;4995511;28;20108;-71
2022/06/09 02:38:36;;;;;;;10.95;9.80;;;11.50;99.90;;;;;;4992418;28;20050;-72
2022/06/09 02:41:03;;;;;;;12.80;10.63;;;11.60;99.90;;;;;;4997286;28;20160;-75
2022/06/09 02:43:30;;;;;;;11.60;10.40;;;11.60;99.90;;;;;;4998541;28;20110;-68
2022/06/09 02:45:57;;;;;;;9.35;8.48;;;11.60;99.90;;;;;;4997102;28;20220;-74
2022/06/09 02:48:25;;;;;;;10.45;9.45;;;11.60;99.90;;;;;;4994565;28;20057;-76
2022/06/09 02:50:52;;;;;;;13.05;9.02;;;11.70;99.90;;;;;;4995215;28;20058;-70
2022/06/09 02:53:21;;;;;;;12.65;9.15;;;11.70;99.90;;;;;;4991185;28;20147;-71
2022/06/09 02:55:48;;;;;;;10.00;9.00;;;11.80;99.90;;;;;;4994702;28;20161;-74
2022/06/09 02:58:16;;;;;;;9.65;8.20;;;11.90;99.90;;;;;;4992065;28;20177;-69
2022/06/09 03:00:43;;;;;;;9.63;8.82;;;11.90;99.90;;;;;;4994265;28;20046;-69
2022/06/09 03:03:13;;;;;;;8.25;7.55;;;12.00;99.90;;;;;;4990957;28;20069;-71
2022/06/09 03:05:40;;;;;;;9.85;8.10;;;12.00;99.90;;;;;;4995658;28;20080;-69
2022/06/09 03:08:07;;;;;;;8.18;7.38;;;12.10;99.90;;;;;;4991108;28;20181;-77
2022/06/09 03:10:36;;;;;;;9.32;7.10;;;12.10;99.90;;;;;;4983679;28;20057;-71
2022/06/09 03:13:04;;;;;;;6.60;6.00;;;12.10;99.90;;;;;;4995455;28;20491;-69
2022/06/09 03:15:31;;;;;;;8.02;7.22;;;12.10;99.90;;;;;;4998522;28;20061;-70
2022/06/09 03:17:58;;;;;;;7.78;6.63;;;12.10;99.90;;;;;;4993905;28;20488;-71
2022/06/09 03:20:28;;;;;;;9.57;6.72;;;12.20;99.90;;;;;;4987508;28;20109;-70
2022/06/09 03:22:55;;;;;;;7.43;6.53;;;12.20;99.90;;;;;;4988853;28;20128;-70
2022/06/09 03:25:22;;;;;;;5.80;5.18;;;12.30;99.90;;;;;;4986037;28;20701;-69
2022/06/09 03:27:49;;;;;;;6.40;5.75;;;12.30;99.90;;;;;;4993475;28;20563;-68
2022/06/09 03:30:17;;;;;;;7.32;6.38;;;12.30;99.90;;;;;;4995246;28;20096;-72
2022/06/09 03:32:44;;;;;;;5.32;4.82;;;12.30;99.90;;;;;;4980151;28;20050;-71
2022/06/09 03:35:12;;;;;;;6.68;5.00;;;12.40;99.90;;;;;;4996558;28;20069;-76
2022/06/09 03:37:39;;;;;;;5.28;4.80;;;12.50;99.90;;;;;;4997641;28;20061;-69
2022/06/09 03:40:11;;;;;;;5.97;4.70;;;12.50;99.90;;;;;;4996456;28;20101;-77
2022/06/09 03:42:38;;;;;;;5.82;5.03;;;12.60;99.90;;;;;;4995062;28;20230;-70
2022/06/09 03:45:05;;;;;;;6.80;6.30;;;12.70;99.90;;;;;;4997936;28;21036;-69
2022/06/09 03:47:36;;;;;;;5.07;4.55;;;12.70;99.90;;;;;;4979214;28;20057;-69
2022/06/09 03:50:04;;;;;;;6.50;5.53;;;12.80;99.90;;;;;;4997166;28;20127;-70
2022/06/09 03:52:32;;;;;;;6.82;6.00;;;12.80;99.90;;;;;;4992634;28;20149;-71
2022/06/09 03:54:59;;;;;;;5.80;5.20;;;12.80;99.90;;;;;;4995110;28;20077;-69
2022/06/09 03:57:26;;;;;;;6.00;4.88;;;12.90;99.90;;;;;;5005903;28;20055;-74
2022/06/09 03:59:53;;;;;;;5.03;4.47;;;12.90;99.90;;;;;;4998976;28;20097;-72
2022/06/09 04:02:20;;;;;;;6.05;5.45;;;12.90;99.90;;;;;;4993972;28;20504;-70
2022/06/09 04:04:47;;;;;;;5.60;5.00;;;13.00;99.90;;;;;;4997020;28;20060;-69
2022/06/09 04:07:14;;;;;;;4.97;4.47;;;13.00;99.90;;;;;;4996608;28;20090;-67
2022/06/09 04:09:40;;;;;;;5.20;4.53;;;13.00;99.90;;;;;;4994342;28;21470;-71
2022/06/09 04:12:08;;;;;;;6.07;5.07;;;13.10;99.90;;;;;;4993936;28;20078;-73
2022/06/09 04:14:40;;;;;;;6.38;5.82;;;13.10;99.90;;;;;;4995708;28;20079;-70
2022/06/09 04:17:07;;;;;;;9.55;4.93;;;13.20;99.90;;;;;;4996935;28;20046;-71
2022/06/09 04:19:34;;;;;;;5.10;4.68;;;13.30;99.90;;;;;;4997874;28;20071;-70
2022/06/09 04:22:01;;;;;;;5.15;4.55;;;13.40;99.90;;;;;;4997550;28;21154;-70
2022/06/09 04:24:28;;;;;;;5.72;4.72;;;13.40;99.90;;;;;;4994914;28;21436;-69
2022/06/09 04:26:54;;;;;;;7.25;4.68;;;13.50;99.90;;;;;;4996916;28;20053;-68
2022/06/09 04:29:21;;;;;;;4.10;3.63;;;13.60;99.90;;;;;;4995139;28;20038;-75
2022/06/09 04:31:48;;;;;;;5.25;3.88;;;13.70;99.90;;;;;;4996322;28;20988;-71
2022/06/09 04:34:15;;;;;;;6.18;4.70;;;13.70;99.90;;;;;;4995404;28;20401;-67
2022/06/09 04:36:42;;;;;;;4.45;4.05;;;13.80;99.90;;;;;;4996334;28;20078;-72
2022/06/09 04:39:10;;;;;;;5.28;4.55;;;13.80;99.90;;;;;;4996992;28;20049;-67
2022/06/09 04:41:38;;;;;;;5.07;4.53;;;13.90;99.90;;;;;;4996492;28;20140;-69
2022/06/09 04:44:05;;;;;;;4.28;3.83;;;13.90;99.90;;;;;;4992761;28;20058;-78
2022/06/09 04:46:33;;;;;;;6.72;4.50;;;14.00;99.90;;;;;;4994402;28;20046;-69
2022/06/09 04:49:00;;;;;;;9.68;3.70;;;14.00;99.90;;;;;;5008154;28;20786;-71
2022/06/09 04:51:27;;;;;;;4.25;3.85;;;14.00;99.90;;;;;;4994342;28;20060;-72
2022/06/09 04:53:54;;;;;;;3.63;3.33;;;14.10;99.90;;;;;;4995781;28;20473;-69
2022/06/09 04:56:22;;;;;;;4.72;2.88;;;14.10;99.90;;;;;;4992465;28;20160;-70
2022/06/09 04:58:51;;;;;;;4.72;4.22;;;14.10;99.90;;;;;;4996282;28;20058;-69
2022/06/09 05:01:22;;;;;;;5.50;3.97;;;14.10;99.90;;;;;;4994145;28;20056;-68
2022/06/09 05:03:49;;;;;;;3.63;3.25;;;14.10;99.90;;;;;;4996328;28;20057;-67
2022/06/09 05:06:18;;;;;;;3.97;3.67;;;14.10;99.90;;;;;;4992498;28;20056;-71
2022/06/09 05:08:46;;;;;;;5.05;3.70;;;14.10;99.90;;;;;;4991058;28;20120;-73
2022/06/09 05:11:14;;;;;;;7.97;3.85;;;14.20;99.90;;;;;;4994440;28;20082;-69
2022/06/09 05:13:41;;;;;;;6.22;3.28;;;14.20;99.90;;;;;;4993446;28;20053;-76
2022/06/09 05:16:09;;;;;;;7.07;3.33;;;14.20;99.90;;;;;;4992180;28;20144;-69
2022/06/09 05:18:37;;;;;;;4.03;3.63;;;14.20;99.90;;;;;;4991356;28;20748;-67
2022/06/09 05:21:05;;;;;;;5.93;3.53;;;14.20;99.90;;;;;;4998089;28;20050;-67
2022/06/09 05:23:33;;;;;;;6.15;4.20;;;14.30;99.90;;;;;;4996343;28;20679;-72
2022/06/09 05:26:03;;;;;;;5.38;2.97;;;14.30;99.90;;;;;;4992678;28;20049;-69
2022/06/09 05:28:31;;;;;;;4.90;3.30;;;14.30;99.90;;;;;;4991805;28;20062;-70
2022/06/09 05:30:59;;;;;;;3.10;2.80;;;14.30;99.90;;;;;;4994486;28;20219;-69
2022/06/09 05:33:28;;;;;;;3.85;2.88;;;14.40;99.90;;;;;;4988947;28;20045;-69
2022/06/09 05:35:55;;;;;;;2.80;2.53;;;14.40;99.90;;;;;;4993194;28;20057;-73
2022/06/09 05:46:46;;;;;;;3.72;3.17;;;14.50;99.90;;;;;;4999682;28;20694;-71
2022/06/09 05:49:18;;;;;;;3.33;3.03;;;14.60;99.90;;;;;;4998180;28;20527;-69
2022/06/09 05:51:49;;;;;;;3.17;2.63;;;14.60;99.90;;;;;;5001432;28;20061;-73
2022/06/09 05:54:16;;;;;;;7.22;3.70;;;14.60;99.90;;;;;;4999538;28;20042;-73
2022/06/09 05:56:43;;;;;;;4.70;4.07;;;14.70;99.90;;;;;;5000286;28;20168;-68
2022/06/09 05:59:10;;;;;;;3.30;3.00;;;14.80;99.90;;;;;;5000703;28;20469;-67
2022/06/09 06:01:37;;;;;;;4.03;3.25;;;14.80;99.90;;;;;;5001951;28;20082;-68
2022/06/09 06:04:06;;;;;;;6.28;3.67;;;14.80;99.90;;;;;;4981946;28;21503;-69
2022/06/09 06:06:34;;;;;;;5.60;3.38;;;14.90;99.90;;;;;;4999927;28;20187;-69
2022/06/09 06:09:14;;;;;;;5.93;3.47;;;14.90;99.90;;;;;;5001198;28;20049;-72
2022/06/09 06:11:42;;;;;;;3.53;3.22;;;15.10;99.90;;;;;;5000062;28;20739;-72
2022/06/09 06:14:10;;;;;;;4.07;3.08;;;15.20;99.90;;;;;;5001534;28;20058;-69
2022/06/09 06:16:38;;;;;;;7.28;3.13;;;15.20;99.90;;;;;;4999758;28;20085;-72
2022/06/09 06:19:07;;;;;;;3.00;2.75;;;15.20;99.90;;;;;;5001956;28;20069;-67
2022/06/09 06:21:36;;;;;;;4.70;3.50;;;15.30;99.90;;;;;;4999111;28;21183;-74
2022/06/09 06:24:05;;;;;;;3.42;3.00;;;15.30;99.90;;;;;;5002943;28;20765;-72
2022/06/09 06:26:33;;;;;;;4.50;3.03;;;15.30;99.90;;;;;;4995588;28;20120;-68
2022/06/09 06:29:02;;;;;;;5.07;2.58;;;15.30;99.90;;;;;;5000179;28;20042;-70
2022/06/09 06:31:29;;;;;;;4.63;2.83;;;15.30;99.90;;;;;;5000144;28;20397;-72
2022/06/09 06:33:58;;;;;;;4.18;2.75;;;15.30;99.90;;;;;;4999305;28;20119;-72
2022/06/09 06:36:25;;;;;;;4.38;2.85;;;15.30;99.90;;;;;;4996261;28;20053;-68
2022/06/09 06:38:51;;;;;;;2.72;2.53;;;15.40;99.90;;;;;;4999241;28;20050;-70
2022/06/09 06:41:18;;;;;;;2.60;2.40;;;15.40;99.90;;;;;;4993396;28;20085;-69
2022/06/09 06:43:47;;;;;;;3.72;3.20;;;15.50;99.90;;;;;;4978713;28;20062;-69
2022/06/09 06:46:15;;;;;;;3.05;2.83;;;15.60;99.90;;;;;;4992284;28;20151;-69
2022/06/09 06:48:43;;;;;;;2.88;2.67;;;15.70;99.90;;;;;;4993152;28;20046;-72
2022/06/09 06:51:10;;;;;;;3.78;2.70;;;15.70;99.90;;;;;;5001583;28;20062;-69
2022/06/09 06:53:38;;;;;;;6.82;3.97;;;15.70;99.90;;;;;;4991357;28;20185;-71
2022/06/09 06:56:06;;;;;;;2.95;2.17;;;15.80;99.90;;;;;;5000716;28;20058;-70
2022/06/09 06:58:34;;;;;;;7.03;2.80;;;15.80;99.90;;;;;;4998762;28;20070;-70
2022/06/09 07:01:02;;;;;;;4.38;3.50;;;15.80;99.90;;;;;;5001152;28;21803;-69
2022/06/09 07:03:30;;;;;;;3.38;3.15;;;15.90;99.90;;;;;;5000507;28;20068;-69
2022/06/09 07:06:03;;;;;;;3.03;2.63;;;15.90;99.90;;;;;;5001911;28;20660;-72
2022/06/09 07:08:31;;;;;;;3.90;2.28;;;15.80;99.90;;;;;;4996343;28;20579;-69
2022/06/09 07:10:58;;;;;;;4.55;2.83;;;15.70;99.90;;;;;;5000166;28;20081;-70
2022/06/09 07:13:25;;;;;;;3.22;3.00;;;15.60;99.90;;;;;;5000286;28;20398;-67
2022/06/09 07:15:53;;;;;;;4.40;2.63;;;15.70;99.90;;;;;;5000789;28;20057;-68
2022/06/09 07:18:27;;;;;;;2.90;2.70;;;15.70;99.90;;;;;;4972665;28;20045;-67
2022/06/09 07:20:54;;;;;;;2.78;2.58;;;15.70;99.90;;;;;;5000125;28;20116;-70
2022/06/09 07:23:22;;;;;;;3.80;3.08;;;15.80;99.90;;;;;;4993291;28;20053;-68
2022/06/09 07:25:49;;;;;;;3.35;2.55;;;15.80;99.90;;;;;;4997143;28;20760;-72
2022/06/09 07:28:16;;;;;;;2.53;2.28;;;15.70;99.90;;;;;;4998111;28;20140;-71
2022/06/09 07:30:44;;;;;;;4.32;3.17;;;15.70;99.90;;;;;;5000032;28;20575;-70
2022/06/09 07:33:13;;;;;;;2.70;2.20;;;15.70;99.90;;;;;;5013341;28;20120;-70
2022/06/09 07:35:40;;;;;;;3.25;2.63;;;15.60;99.90;;;;;;4999954;28;20484;-69
2022/06/09 07:38:11;;;;;;;3.13;2.78;;;15.60;99.90;;;;;;5000149;28;20081;-71
2022/06/09 07:40:39;;;;;;;;;;;15.70;99.90;;;;;;4995995;28;20056;-69
2022/06/09 07:43:07;;;;;;;3.45;3.15;;;15.80;99.90;;;;;;4999241;28;19965;-68
2022/06/09 07:45:37;;;;;;;5.63;3.33;;;15.90;99.90;;;;;;5000363;28;20132;-68
2022/06/09 07:48:04;;;;;;;3.25;2.92;;;16.00;99.90;;;;;;4999578;28;20126;-70
2022/06/09 07:50:37;;;;;;;3.92;3.13;;;16.00;99.90;;;;;;4997491;28;20050;-68
2022/06/09 07:53:05;;;;;;;3.28;2.60;;;16.00;99.90;;;;;;5000365;28;20049;-72
2022/06/09 07:55:33;;;;;;;4.63;3.33;;;16.00;99.90;;;;;;4988134;28;20140;-76
2022/06/09 07:58:00;;;;;;;4.68;3.58;;;16.00;99.90;;;;;;4989567;28;22250;-69
2022/06/09 08:00:28;;;;;;;6.60;3.83;;;16.00;99.90;;;;;;4980280;28;20383;-71
2022/06/09 08:02:55;;;;;;;4.68;4.18;;;16.10;99.90;;;;;;4998142;28;20073;-69
2022/06/09 08:05:24;;;;;;;5.35;3.95;;;16.10;99.90;;;;;;4999400;28;20056;-68
2022/06/09 08:07:52;;;;;;;5.28;3.92;;;16.10;99.90;;;;;;4998722;28;20077;-68
2022/06/09 08:10:22;;;;;;;3.95;3.58;;;16.00;99.90;;;;;;4996549;28;20498;-71
2022/06/09 08:12:58;;;;;;;5.43;3.00;;;16.10;99.90;;;;;;4996157;28;20112;-70
2022/06/09 08:15:32;;;;;;;8.93;3.63;;;16.20;99.90;;;;;;4996580;28;20050;-67
2022/06/09 08:18:00;;;;;;;6.32;3.50;;;16.20;99.90;;;;;;4997399;28;20073;-76
2022/06/09 08:20:30;;;;;;;4.75;3.80;;;16.10;99.90;;;;;;4996331;28;20061;-68
2022/06/09 08:23:20;;;;;;;4.28;3.88;;;15.90;99.90;;;;;;4999110;28;20037;-74
2022/06/09 08:25:49;;;;;;;4.05;2.60;;;15.90;99.90;;;;;;5000414;28;20511;-67
2022/06/09 08:28:18;;;;;;;6.65;3.53;;;15.90;99.90;;;;;;4986926;28;20057;-69
2022/06/09 08:30:51;;;;;;;3.80;3.35;;;15.90;99.90;;;;;;4997573;28;20100;-72
2022/06/09 08:33:19;;;;;;;4.15;3.42;;;16.00;99.90;;;;;;4999643;28;20130;-71
2022/06/09 08:35:47;;;;;;;3.28;2.88;;;15.90;99.90;;;;;;4999199;28;20049;-67
2022/06/09 08:38:14;;;;;;;2.97;2.45;;;15.80;99.90;;;;;;4998352;28;20049;-69
2022/06/09 08:41:18;;;;;;;10.18;2.97;;;15.90;99.90;;;;;;4989549;28;20050;-69
2022/06/09 08:43:53;;;;;;;4.40;4.00;;;16.10;99.90;;;;;;4996403;28;20134;-72
2022/06/09 08:46:26;;;;;;;4.35;3.55;;;16.10;99.90;;;;;;4990365;28;20224;-77
2022/06/09 08:48:56;;;;;;;6.80;3.97;;;16.10;99.90;;;;;;4999014;28;20059;-71
2022/06/09 08:51:44;;;;;;;5.18;3.28;;;16.00;99.90;;;;;;4998994;28;20064;-71
2022/06/09 08:54:28;;;;;;;7.93;4.50;;;16.20;99.90;;;;;;4999234;28;20093;-70
2022/06/09 08:56:57;;;;;;;5.80;3.78;;;16.10;99.90;;;;;;4973427;28;20058;-73
2022/06/09 08:59:28;;;;;;;5.13;3.47;;;16.10;99.90;;;;;;4977090;28;20062;-68
2022/06/09 09:02:00;;;;;;;2.95;2.60;;;16.20;99.90;;;;;;4980316;28;20560;-68
2022/06/09 09:04:35;;;;;;;4.53;2.33;;;16.40;99.90;;;;;;4991686;28;20372;-71
2022/06/09 09:07:13;;;;;;;3.63;2.35;;;16.40;99.90;;;;;;4996857;28;20050;-74
2022/06/09 09:09:41;;;;;;;2.85;2.50;;;16.50;99.90;;;;;;4987027;28;20050;-67
2022/06/09 09:12:30;;;;;;;3.55;3.25;;;16.60;99.90;;;;;;4996826;28;20100;-79
2022/06/09 09:15:26;;;;;;;4.75;2.85;;;16.80;99.90;;;;;;4987202;28;20483;-70
2022/06/09 09:18:12;;;;;;;4.53;2.65;;;16.90;99.90;;;;;;4997991;28;20057;-71
2022/06/09 09:20:44;;;;;;;3.70;2.53;;;16.80;99.90;;;;;;4977132;28;20736;-76
2022/06/09 09:23:11;;;;;;;4.07;3.05;;;16.60;99.90;;;;;;4998949;28;20096;-75
2022/06/09 09:25:57;;;;;;;3.45;3.15;;;16.60;99.90;;;;;;4999753;28;20081;-72
2022/06/09 09:28:32;;;;;;;4.97;4.28;;;16.50;99.90;;;;;;4997227;28;20070;-69
2022/06/09 09:31:23;;;;;;;6.07;4.82;;;16.40;99.90;;;;;;4996981;28;20132;-71
2022/06/09 09:33:51;;;;;;;5.45;3.20;;;16.60;99.90;;;;;;4981254;28;20050;-67
2022/06/09 09:36:25;;;;;;;6.05;3.80;;;16.70;99.90;;;;;;4997085;28;20147;-73
2022/06/09 09:39:14;;;;;;;3.63;3.33;;;16.80;99.90;;;;;;4999040;28;20096;-67
2022/06/09 09:41:41;;;;;;;3.05;2.75;;;16.80;99.90;;;;;;4998018;28;20052;-79
2022/06/09 09:44:27;;;;;;;3.45;3.20;;;16.40;99.90;;;;;;4997338;28;20071;-69
2022/06/09 09:46:58;;;;;;;3.85;3.45;;;16.30;99.90;;;;;;4996184;28;20924;-70
2022/06/09 09:49:50;;;;;;;3.67;3.38;;;16.30;99.90;;;;;;4994689;28;20054;-69
2022/06/09 09:52:40;;;;;;;5.80;3.88;;;16.40;99.90;;;;;;4996652;28;20141;-74
2022/06/09 09:55:25;;;;;;;4.40;3.40;;;16.40;99.90;;;;;;4997634;28;20050;-71
2022/06/09 09:58:24;;;;;;;4.20;3.58;;;16.30;99.90;;;;;;4997039;28;20050;-73
2022/06/09 10:01:05;;;;;;;6.38;3.95;;;16.30;99.90;;;;;;4981518;28;20050;-71
2022/06/09 10:09:52;;;;;;;6.30;4.13;;;16.20;99.90;;;;;;4979553;28;20731;-74
2022/06/09 10:12:37;;;;;;;5.32;3.97;;;16.20;99.90;;;;;;4995848;28;20042;-73
2022/06/09 10:15:24;;;;;;;4.07;3.72;;;16.40;99.90;;;;;;4997114;28;20125;-71
2022/06/09 10:17:54;;;;;;;3.78;3.47;;;16.60;99.90;;;;;;4992752;28;20073;-72
2022/06/09 10:21:10;;;;;;;4.57;3.45;;;16.50;99.90;;;;;;4990639;28;21050;-76
2022/06/09 10:23:44;;;;;;;4.50;3.13;;;16.30;99.90;;;;;;4994422;28;20100;-76
2022/06/09 10:26:13;;;;;;;3.90;3.60;;;16.40;99.90;;;;;;4998541;28;20064;-73
2022/06/09 10:28:49;;;;;;;5.43;3.88;;;16.60;99.90;;;;;;4992675;28;20054;-72
2022/06/09 10:31:30;;;;;;;4.32;3.50;;;16.90;99.90;;;;;;4989674;28;20068;-74
2022/06/09 10:34:34;;;;;;;3.25;2.95;;;17.00;99.90;;;;;;4997794;28;20073;-77
2022/06/09 10:37:07;;;;;;;3.92;3.63;;;16.90;99.90;;;;;;4994854;28;20563;-73
2022/06/09 10:39:46;;;;;;;5.13;4.63;;;16.60;99.90;;;;;;4999833;28;20048;-72
2022/06/09 10:42:24;;;;;;;3.17;2.88;;;16.50;99.90;;;;;;4999767;28;20046;-69
2022/06/09 10:44:57;;;;;;;4.25;3.85;;;16.40;99.90;;;;;;4998752;28;20178;-67
2022/06/09 10:56:12;;;;;;;4.40;3.40;;;16.90;99.90;;;;;;4994468;28;20069;-67
2022/06/09 10:58:49;;;;;;;3.55;3.25;;;17.10;99.90;;;;;;4988379;28;20054;-69
2022/06/09 11:01:28;;;;;;;3.15;2.45;;;17.00;99.90;;;;;;5000678;28;20467;-72
2022/06/09 11:03:56;;;;;;;4.22;2.60;;;17.00;99.90;;;;;;4999360;28;20050;-71
2022/06/09 11:06:46;;;;;;;3.55;3.22;;;17.20;99.90;;;;;;4998144;28;21017;-71
2022/06/09 11:09:20;;;;;;;5.25;3.20;;;17.30;99.90;;;;;;4978664;28;20046;-69
2022/06/09 11:12:08;;;;;;;3.80;2.80;;;17.30;99.90;;;;;;4999191;28;20101;-68
2022/06/09 11:14:44;;;;;;;2.47;2.28;;;17.10;99.90;;;;;;4996225;28;20065;-69
2022/06/09 11:17:34;;;;;;;3.38;3.08;;;17.40;99.90;;;;;;4998269;28;20046;-70
2022/06/09 11:20:22;;;;;;;3.58;2.95;;;17.60;99.90;;;;;;4986079;28;21837;-70
2022/06/09 11:23:24;;;;;;;4.78;2.40;;;17.60;99.90;;;;;;5000230;28;20144;-68
2022/06/09 11:26:16;;;;;;;2.72;2.50;;;17.50;99.90;;;;;;4997186;28;20162;-74
2022/06/09 11:29:03;;;;;;;2.72;2.53;;;17.50;99.90;;;;;;4995902;28;20061;-70
2022/06/09 11:31:56;;;;;;;6.85;2.72;;;17.30;99.90;;;;;;4999557;28;20143;-68
2022/06/09 11:34:54;;;;;;;2.53;2.15;;;17.20;99.90;;;;;;4994641;28;20054;-69
2022/06/09 11:37:24;;;;;;;6.30;4.00;;;17.10;99.90;;;;;;5000344;28;20079;-68
2022/06/09 11:39:57;;;;;;;2.63;2.03;;;17.20;99.90;;;;;;4995523;28;20061;-72
2022/06/09 11:42:49;;;;;;;6.90;2.05;;;17.30;99.90;;;;;;4991203;28;20054;-71
2022/06/09 11:45:44;;;;;;;2.72;2.42;;;17.60;99.90;;;;;;4998288;28;20050;-70
2022/06/09 11:48:18;;;;;;;2.92;1.88;;;17.80;99.90;;;;;;4994972;28;20518;-70
2022/06/09 11:50:46;;;;;;;2.25;1.98;;;17.90;99.90;;;;;;4990837;28;20132;-75
2022/06/09 11:53:23;;;;;;;2.13;1.85;;;17.90;99.90;;;;;;4987250;28;20115;-72
2022/06/09 11:56:03;;;;;;;2.60;2.15;;;17.60;99.90;;;;;;4985089;28;20049;-72
2022/06/09 11:58:35;;;;;;;3.10;2.47;;;17.50;99.90;;;;;;4983703;28;21207;-71
2022/06/09 12:01:33;;;;;;;2.50;1.98;;;17.50;99.90;;;;;;4991079;28;20053;-68
2022/06/09 12:04:21;;;;;;;3.70;1.92;;;17.60;99.90;;;;;;4976258;28;20097;-71
2022/06/09 12:07:20;;;;;;;2.38;2.08;;;17.70;99.90;;;;;;4990931;28;20088;-68
2022/06/09 12:10:06;;;;;;;2.33;2.00;;;18.00;99.90;;;;;;5006664;28;20049;-70
2022/06/09 12:12:43;;;;;;;2.10;1.90;;;18.10;99.90;;;;;;4999786;28;20060;-70
2022/06/09 12:16:02;;;;;;;2.35;1.92;;;18.10;99.90;;;;;;4999411;28;20053;-69
2022/06/09 12:18:58;;;;;;;5.05;2.30;;;18.30;99.90;;;;;;4949608;28;20057;-69
2022/06/09 12:21:36;;;;;;;4.65;2.70;;;18.40;99.90;;;;;;5001018;28;20050;-68
2022/06/09 12:24:24;;;;;;;8.93;3.17;;;18.50;99.90;;;;;;5001760;28;20054;-68
2022/06/09 12:27:11;;;;;;;3.65;1.83;;;18.40;99.90;;;;;;5004205;28;20065;-74
2022/06/09 12:29:40;;;;;;;3.95;2.40;;;18.60;99.90;;;;;;5003020;28;20053;-72
2022/06/09 12:32:10;;;;;;;2.90;2.08;;;18.50;99.90;;;;;;5001357;28;20049;-71
2022/06/09 12:34:40;;;;;;;2.00;1.83;;;18.40;99.90;;;;;;4982636;28;20104;-71
2022/06/09 12:37:17;;;;;;;5.10;2.63;;;18.40;99.90;;;;;;5003725;28;20074;-73
2022/06/09 12:39:52;;;;;;;2.20;2.10;;;18.60;99.90;;;;;;5005428;28;20205;-70
2022/06/09 12:42:23;;;;;;;4.00;1.65;;;18.50;99.90;;;;;;5002727;28;20053;-70
2022/06/09 12:45:12;;;;;;;2.58;2.10;;;18.50;99.90;;;;;;5001323;28;20156;-72
2022/06/09 12:47:51;;;;;;;2.92;2.00;;;18.60;99.90;;;;;;4993953;28;20109;-71
2022/06/09 12:50:34;;;;;;;3.22;1.73;;;18.70;99.90;;;;;;4981683;28;20492;-71
2022/06/09 12:53:04;;;;;;;3.08;2.40;;;18.90;99.90;;;;;;4969877;28;20483;-69
2022/06/09 12:55:35;;;;;;;3.63;2.42;;;19.10;99.90;;;;;;5003297;28;20050;-72
2022/06/09 12:58:23;;;;;;;3.50;2.30;;;19.20;99.90;;;;;;5004959;28;20526;-67
2022/06/09 13:00:56;;;;;;;3.05;2.85;;;18.90;99.90;;;;;;4996791;28;20076;-68
2022/06/09 13:03:25;;;;;;;3.25;2.90;;;18.80;99.90;;;;;;5002470;28;20460;-72
2022/06/09 13:05:53;;;;;;;4.10;1.95;;;18.80;99.90;;;;;;5003885;28;20049;-70
2022/06/09 13:08:27;;;;;;;2.13;1.83;;;19.10;99.90;;;;;;5004310;28;20046;-71
2022/06/09 13:11:14;;;;;;;2.58;2.03;;;19.00;99.90;;;;;;5006812;28;20141;-68
2022/06/09 13:13:44;;;;;;;2.00;1.80;;;18.70;99.90;;;;;;5003364;28;20049;-73
2022/06/09 13:16:24;;;;;;;2.55;2.10;;;18.80;99.90;;;;;;5001947;28;20063;-70
2022/06/09 13:18:58;;;;;;;2.80;1.98;;;18.60;99.90;;;;;;4990401;28;20046;-73
2022/06/09 13:21:32;;;;;;;2.22;1.70;;;18.70;99.90;;;;;;4996051;28;20053;-73
2022/06/09 13:24:01;;;;;;;4.13;2.00;;;18.90;99.90;;;;;;5001285;28;20073;-73
2022/06/09 13:26:36;;;;;;;2.75;2.55;;;19.20;99.90;;;;;;5001740;28;20074;-74
2022/06/09 13:29:09;;;;;;;4.00;1.92;;;19.00;99.90;;;;;;5001366;28;20053;-72
2022/06/09 13:31:43;;;;;;;3.78;3.45;;;19.10;99.90;;;;;;4998594;28;20507;-71
2022/06/09 13:34:13;;;;;;;3.97;1.73;;;19.00;99.90;;;;;;4998044;28;20108;-73
2022/06/09 13:36:55;;;;;;;2.65;1.90;;;19.30;99.90;;;;;;5000330;28;20053;-72